sensor_id;sensor_type;location;lat;lon;timestamp;temperature;humidity
29577;DHT22;16509;53.862;10.672;2022-07-04T00:00:28;16.30;99.90
29577;DHT22;16509;53.862;10.672;2022-07-04T00:02:55;16.50;99.90
29577;DHT22;16509;53.862;10.672;2022-07-04T00:05:20;16.40;99.90
29577;DHT22;16509;53.862;10.672;2022-07-04T00:07:49;16.30;99.90
29577;DHT22;16509;53.862;10.672;2022-07-04T00:10:18;16.10;99.90
29577;DHT22;16509;53.862;10.672;2022-07-04T00:12:44;16.40;99.90
29577;DHT22;16509;53.862;10.672;2022-07-04T00:15:11;15.90;99.90
29577;DHT22;16509;53.862;10.672;2022-07-04T00:17:37;16.40;99.90
29577;DHT22;16509;53.862;10.672;2022-07-04T00:20:04;15.90;99.90
29577;DHT22;16509;53.862;10.672;2022-07-04T00:22:30;16.10;99.90
29577;DHT22;16509;53.862;10.672;2022-07-04T00:24:56;16.00;99.90
29577;DHT22;16509;53.862;10.672;2022-07-04T00:27:22;16.10;99.90
29577;DHT22;16509;53.862;10.672;2022-07-04T00:29:47;15.90;99.90
29577;DHT22;16509;53.862;10.672;2022-07-04T00:32:13;16.10;99.90
29577;DHT22;16509;53.862;10.672;2022-07-04T00:34:39;15.60;99.90
29577;DHT22;16509;53.862;10.672;2022-07-04T00:37:04;15.60;99.90
29577;DHT22;16509;53.862;10.672;2022-07-04T00:39:30;15.80;99.90
29577;DHT22;16509;53.862;10.672;2022-07-04T00:41:56;15.80;99.90
29577;DHT22;16509;53.862;10.672;2022-07-04T00:44:22;16.00;99.90
29577;DHT22;16509;53.862;10.672;2022-07-04T00:46:47;15.70;99.90
29577;DHT22;16509;53.862;10.672;2022-07-04T00:49:15;15.90;99.90
29577;DHT22;16509;53.862;10.672;2022-07-04T00:51:42;15.80;99.90
29577;DHT22;16509;53.862;10.672;2022-07-04T00:54:11;16.00;99.90
29577;DHT22;16509;53.862;10.672;2022-07-04T00:56:38;16.20;99.90
29577;DHT22;16509;53.862;10.672;2022-07-04T00:59:05;16.20;99.90
29577;DHT22;16509;53.862;10.672;2022-07-04T01:01:31;15.80;99.90
29577;DHT22;16509;53.862;10.672;2022-07-04T01:03:57;15.70;99.90
29577;DHT22;16509;53.862;10.672;2022-07-04T01:06:23;15.90;99.90
29577;DHT22;16509;53.862;10.672;2022-07-04T01:08:49;15.80;99.90
29577;DHT22;16509;53.862;10.672;2022-07-04T01:11:15;15.80;99.90
29577;DHT22;16509;53.862;10.672;2022-07-04T01:13:42;15.70;99.90
29577;DHT22;16509;53.862;10.672;2022-07-04T01:16:08;15.80;99.90
29577;DHT22;16509;53.862;10.672;2022-07-04T01:18:34;15.50;99.90
29577;DHT22;16509;53.862;10.672;2022-07-04T01:21:00;15.60;99.90
29577;DHT22;16509;53.862;10.672;2022-07-04T01:23:26;15.60;99.90
29577;DHT22;16509;53.862;10.672;2022-07-04T01:25:51;15.70;99.90
29577;DHT22;16509;53.862;10.672;2022-07-04T01:28:22;15.40;99.90
29577;DHT22;16509;53.862;10.672;2022-07-04T01:30:48;15.40;99.90
29577;DHT22;16509;53.862;10.672;2022-07-04T01:33:13;15.60;99.90
29577;DHT22;16509;53.862;10.672;2022-07-04T01:35:40;15.20;99.90
29577;DHT22;16509;53.862;10.672;2022-07-04T01:38:05;14.90;99.90
29577;DHT22;16509;53.862;10.672;2022-07-04T01:40:31;15.50;99.90
29577;DHT22;16509;53.862;10.672;2022-07-04T01:42:57;15.50;99.90
29577;DHT22;16509;53.862;10.672;2022-07-04T01:45:24;15.50;99.90
29577;DHT22;16509;53.862;10.672;2022-07-04T01:47:50;15.20;99.90
29577;DHT22;16509;53.862;10.672;2022-07-04T01:50:15;16.30;99.90
29577;DHT22;16509;53.862;10.672;2022-07-04T01:52:41;15.40;99.90
29577;DHT22;16509;53.862;10.672;2022-07-04T01:55:08;15.10;99.90
29577;DHT22;16509;53.862;10.672;2022-07-04T01:57:34;15.30;99.90
29577;DHT22;16509;53.862;10.672;2022-07-04T02:00:00;15.60;99.90
29577;DHT22;16509;53.862;10.672;2022-07-04T02:02:45;15.20;99.90
29577;DHT22;16509;53.862;10.672;2022-07-04T02:05:11;15.30;99.90
29577;DHT22;16509;53.862;10.672;2022-07-04T02:07:36;15.10;99.90
29577;DHT22;16509;53.862;10.672;2022-07-04T02:10:03;15.40;99.90
29577;DHT22;16509;53.862;10.672;2022-07-04T02:12:28;15.20;99.90
29577;DHT22;16509;53.862;10.672;2022-07-04T02:15:13;15.20;99.90
29577;DHT22;16509;53.862;10.672;2022-07-04T02:17:38;15.40;99.90
29577;DHT22;16509;53.862;10.672;2022-07-04T02:20:05;15.30;99.90
29577;DHT22;16509;53.862;10.672;2022-07-04T02:22:31;15.20;99.90
29577;DHT22;16509;53.862;10.672;2022-07-04T02:24:57;15.20;99.90
29577;DHT22;16509;53.862;10.672;2022-07-04T02:27:23;16.30;99.90
29577;DHT22;16509;53.862;10.672;2022-07-04T02:29:48;15.30;99.90
29577;DHT22;16509;53.862;10.672;2022-07-04T02:32:14;15.10;99.90
29577;DHT22;16509;53.862;10.672;2022-07-04T02:34:39;14.90;99.90
29577;DHT22;16509;53.862;10.672;2022-07-04T02:37:05;15.20;99.90
29577;DHT22;16509;53.862;10.672;2022-07-04T02:39:31;15.00;99.90
29577;DHT22;16509;53.862;10.672;2022-07-04T02:41:56;15.10;99.90
29577;DHT22;16509;53.862;10.672;2022-07-04T02:44:22;15.20;99.90
29577;DHT22;16509;53.862;10.672;2022-07-04T02:46:47;14.70;99.90
29577;DHT22;16509;53.862;10.672;2022-07-04T02:49:13;15.20;99.90
29577;DHT22;16509;53.862;10.672;2022-07-04T02:51:38;15.30;99.90
29577;DHT22;16509;53.862;10.672;2022-07-04T02:54:05;15.30;99.90
29577;DHT22;16509;53.862;10.672;2022-07-04T02:56:30;15.20;99.90
29577;DHT22;16509;53.862;10.672;2022-07-04T02:58:56;15.30;99.90
29577;DHT22;16509;53.862;10.672;2022-07-04T03:01:22;15.00;99.90
29577;DHT22;16509;53.862;10.672;2022-07-04T03:03:47;14.90;99.90
29577;DHT22;16509;53.862;10.672;2022-07-04T03:06:13;15.10;99.90
29577;DHT22;16509;53.862;10.672;2022-07-04T03:08:39;15.00;99.90
29577;DHT22;16509;53.862;10.672;2022-07-04T03:11:05;15.00;99.90
29577;DHT22;16509;53.862;10.672;2022-07-04T03:13:32;15.00;99.90
29577;DHT22;16509;53.862;10.672;2022-07-04T03:15:58;15.30;99.90
29577;DHT22;16509;53.862;10.672;2022-07-04T03:18:24;15.10;99.90
29577;DHT22;16509;53.862;10.672;2022-07-04T03:20:49;15.00;99.90
29577;DHT22;16509;53.862;10.672;2022-07-04T03:23:15;15.20;99.90
29577;DHT22;16509;53.862;10.672;2022-07-04T03:25:42;14.80;99.90
29577;DHT22;16509;53.862;10.672;2022-07-04T03:28:08;15.20;99.90
29577;DHT22;16509;53.862;10.672;2022-07-04T03:30:35;15.10;99.90
29577;DHT22;16509;53.862;10.672;2022-07-04T03:33:01;15.00;99.90
29577;DHT22;16509;53.862;10.672;2022-07-04T03:35:27;15.10;99.90
29577;DHT22;16509;53.862;10.672;2022-07-04T03:37:53;14.90;99.90
29577;DHT22;16509;53.862;10.672;2022-07-04T03:40:19;15.30;99.90
29577;DHT22;16509;53.862;10.672;2022-07-04T03:42:45;15.10;99.90
29577;DHT22;16509;53.862;10.672;2022-07-04T03:45:11;14.90;99.90
29577;DHT22;16509;53.862;10.672;2022-07-04T03:47:36;15.10;99.90
29577;DHT22;16509;53.862;10.672;2022-07-04T03:50:03;14.90;99.90
29577;DHT22;16509;53.862;10.672;2022-07-04T03:52:28;14.90;99.90
29577;DHT22;16509;53.862;10.672;2022-07-04T03:54:54;14.80;99.90
29577;DHT22;16509;53.862;10.672;2022-07-04T03:57:20;14.70;99.90
29577;DHT22;16509;53.862;10.672;2022-07-04T03:59:45;15.10;99.90
29577;DHT22;16509;53.862;10.672;2022-07-04T04:02:11;15.10;99.90
29577;DHT22;16509;53.862;10.672;2022-07-04T04:04:37;15.20;99.90
29577;DHT22;16509;53.862;10.672;2022-07-04T04:07:21;15.00;99.90
29577;DHT22;16509;53.862;10.672;2022-07-04T04:09:47;15.10;99.90
29577;DHT22;16509;53.862;10.672;2022-07-04T04:12:12;15.10;99.90
29577;DHT22;16509;53.862;10.672;2022-07-04T04:14:38;15.20;99.90
29577;DHT22;16509;53.862;10.672;2022-07-04T04:17:04;15.00;99.90
29577;DHT22;16509;53.862;10.672;2022-07-04T04:19:29;14.70;99.90
29577;DHT22;16509;53.862;10.672;2022-07-04T04:21:55;15.00;99.90
29577;DHT22;16509;53.862;10.672;2022-07-04T04:24:21;15.20;99.90
29577;DHT22;16509;53.862;10.672;2022-07-04T04:26:46;15.10;99.90
29577;DHT22;16509;53.862;10.672;2022-07-04T04:29:12;15.40;99.90
29577;DHT22;16509;53.862;10.672;2022-07-04T04:31:38;15.10;99.90
29577;DHT22;16509;53.862;10.672;2022-07-04T04:34:03;15.40;99.90
29577;DHT22;16509;53.862;10.672;2022-07-04T04:36:29;15.30;99.90
29577;DHT22;16509;53.862;10.672;2022-07-04T04:38:54;15.20;99.90
29577;DHT22;16509;53.862;10.672;2022-07-04T04:41:20;15.10;99.90
29577;DHT22;16509;53.862;10.672;2022-07-04T04:43:45;15.20;99.90
29577;DHT22;16509;53.862;10.672;2022-07-04T04:46:11;15.40;99.90
29577;DHT22;16509;53.862;10.672;2022-07-04T04:48:37;15.80;99.90
29577;DHT22;16509;53.862;10.672;2022-07-04T04:51:02;15.50;99.90
29577;DHT22;16509;53.862;10.672;2022-07-04T04:53:29;15.80;99.90
29577;DHT22;16509;53.862;10.672;2022-07-04T04:55:55;15.50;99.90
29577;DHT22;16509;53.862;10.672;2022-07-04T04:58:21;15.80;99.90
29577;DHT22;16509;53.862;10.672;2022-07-04T05:00:47;15.90;99.90
29577;DHT22;16509;53.862;10.672;2022-07-04T05:03:15;15.50;99.90
29577;DHT22;16509;53.862;10.672;2022-07-04T05:05:41;15.70;99.90
29577;DHT22;16509;53.862;10.672;2022-07-04T05:08:06;16.10;99.90
29577;DHT22;16509;53.862;10.672;2022-07-04T05:10:32;16.00;99.90
29577;DHT22;16509;53.862;10.672;2022-07-04T05:12:58;15.80;99.90
29577;DHT22;16509;53.862;10.672;2022-07-04T05:15:23;15.90;99.90
29577;DHT22;16509;53.862;10.672;2022-07-04T05:17:49;16.00;99.90
29577;DHT22;16509;53.862;10.672;2022-07-04T05:20:15;15.90;99.90
29577;DHT22;16509;53.862;10.672;2022-07-04T05:22:41;16.10;99.90
29577;DHT22;16509;53.862;10.672;2022-07-04T05:25:07;16.20;99.90
29577;DHT22;16509;53.862;10.672;2022-07-04T05:27:33;16.10;99.90
29577;DHT22;16509;53.862;10.672;2022-07-04T05:29:58;16.30;99.90
29577;DHT22;16509;53.862;10.672;2022-07-04T05:32:26;16.30;99.90
29577;DHT22;16509;53.862;10.672;2022-07-04T05:34:52;16.30;99.90
29577;DHT22;16509;53.862;10.672;2022-07-04T05:37:18;16.30;99.90
29577;DHT22;16509;53.862;10.672;2022-07-04T05:39:44;16.50;99.90
29577;DHT22;16509;53.862;10.672;2022-07-04T05:42:10;16.60;99.90
29577;DHT22;16509;53.862;10.672;2022-07-04T05:44:35;16.90;99.90
29577;DHT22;16509;53.862;10.672;2022-07-04T05:47:01;16.70;99.90
29577;DHT22;16509;53.862;10.672;2022-07-04T05:49:27;16.70;99.90
29577;DHT22;16509;53.862;10.672;2022-07-04T05:51:52;16.80;99.90
29577;DHT22;16509;53.862;10.672;2022-07-04T05:54:18;17.10;99.90
29577;DHT22;16509;53.862;10.672;2022-07-04T05:56:43;17.80;99.90
29577;DHT22;16509;53.862;10.672;2022-07-04T05:59:09;17.10;99.90
29577;DHT22;16509;53.862;10.672;2022-07-04T06:01:36;17.30;99.90
29577;DHT22;16509;53.862;10.672;2022-07-04T06:04:03;17.30;99.90
29577;DHT22;16509;53.862;10.672;2022-07-04T06:06:28;17.50;99.90
29577;DHT22;16509;53.862;10.672;2022-07-04T06:08:55;17.70;99.90
29577;DHT22;16509;53.862;10.672;2022-07-04T06:11:21;18.00;99.90
29577;DHT22;16509;53.862;10.672;2022-07-04T06:13:47;18.10;99.90
29577;DHT22;16509;53.862;10.672;2022-07-04T06:16:13;18.30;99.90
29577;DHT22;16509;53.862;10.672;2022-07-04T06:18:39;18.20;99.90
29577;DHT22;16509;53.862;10.672;2022-07-04T06:21:05;18.70;99.90
29577;DHT22;16509;53.862;10.672;2022-07-04T06:23:30;18.80;99.90
29577;DHT22;16509;53.862;10.672;2022-07-04T06:25:56;18.80;99.90
29577;DHT22;16509;53.862;10.672;2022-07-04T06:28:22;19.20;99.90
29577;DHT22;16509;53.862;10.672;2022-07-04T06:30:47;19.20;99.90
29577;DHT22;16509;53.862;10.672;2022-07-04T06:33:13;19.30;99.90
29577;DHT22;16509;53.862;10.672;2022-07-04T06:35:39;19.70;99.90
29577;DHT22;16509;53.862;10.672;2022-07-04T06:38:11;19.60;99.90
29577;DHT22;16509;53.862;10.672;2022-07-04T06:40:38;19.80;99.90
29577;DHT22;16509;53.862;10.672;2022-07-04T06:43:03;20.00;99.90
29577;DHT22;16509;53.862;10.672;2022-07-04T06:45:29;20.10;99.90
29577;DHT22;16509;53.862;10.672;2022-07-04T06:47:55;20.30;99.90
29577;DHT22;16509;53.862;10.672;2022-07-04T06:50:21;19.90;99.90
29577;DHT22;16509;53.862;10.672;2022-07-04T06:52:46;19.60;99.90
29577;DHT22;16509;53.862;10.672;2022-07-04T06:55:12;19.60;99.90
29577;DHT22;16509;53.862;10.672;2022-07-04T06:57:38;19.50;99.90
29577;DHT22;16509;53.862;10.672;2022-07-04T07:00:06;20.10;99.90
29577;DHT22;16509;53.862;10.672;2022-07-04T07:02:34;20.10;99.90
29577;DHT22;16509;53.862;10.672;2022-07-04T07:05:00;20.10;99.90
29577;DHT22;16509;53.862;10.672;2022-07-04T07:07:25;20.20;99.90
29577;DHT22;16509;53.862;10.672;2022-07-04T07:09:53;20.40;99.90
29577;DHT22;16509;53.862;10.672;2022-07-04T07:12:18;20.40;99.90
29577;DHT22;16509;53.862;10.672;2022-07-04T07:14:44;20.80;99.90
29577;DHT22;16509;53.862;10.672;2022-07-04T07:17:09;22.00;99.90
29577;DHT22;16509;53.862;10.672;2022-07-04T07:19:35;21.20;99.90
29577;DHT22;16509;53.862;10.672;2022-07-04T07:22:00;21.20;99.90
29577;DHT22;16509;53.862;10.672;2022-07-04T07:24:26;21.10;99.90
29577;DHT22;16509;53.862;10.672;2022-07-04T07:26:55;20.90;99.90
29577;DHT22;16509;53.862;10.672;2022-07-04T07:29:21;21.20;99.90
29577;DHT22;16509;53.862;10.672;2022-07-04T07:31:47;21.20;99.90
29577;DHT22;16509;53.862;10.672;2022-07-04T07:34:12;22.50;99.90
29577;DHT22;16509;53.862;10.672;2022-07-04T07:36:38;21.10;99.90
29577;DHT22;16509;53.862;10.672;2022-07-04T07:39:04;20.80;99.90
29577;DHT22;16509;53.862;10.672;2022-07-04T07:41:29;20.90;99.90
29577;DHT22;16509;53.862;10.672;2022-07-04T07:43:55;21.00;99.90
29577;DHT22;16509;53.862;10.672;2022-07-04T07:46:20;21.40;99.90
29577;DHT22;16509;53.862;10.672;2022-07-04T07:48:46;21.60;99.90
29577;DHT22;16509;53.862;10.672;2022-07-04T07:51:12;21.30;99.90
29577;DHT22;16509;53.862;10.672;2022-07-04T07:53:39;21.10;99.90
29577;DHT22;16509;53.862;10.672;2022-07-04T07:56:05;20.70;99.90
29577;DHT22;16509;53.862;10.672;2022-07-04T07:58:30;22.00;99.90
29577;DHT22;16509;53.862;10.672;2022-07-04T08:00:56;20.60;99.90
29577;DHT22;16509;53.862;10.672;2022-07-04T08:03:22;20.30;99.90
29577;DHT22;16509;53.862;10.672;2022-07-04T08:06:07;20.00;99.90
29577;DHT22;16509;53.862;10.672;2022-07-04T08:08:33;20.60;99.90
29577;DHT22;16509;53.862;10.672;2022-07-04T08:10:58;20.50;99.90
29577;DHT22;16509;53.862;10.672;2022-07-04T08:13:24;21.60;99.90
29577;DHT22;16509;53.862;10.672;2022-07-04T08:15:50;20.70;99.90
29577;DHT22;16509;53.862;10.672;2022-07-04T08:18:15;20.80;99.90
29577;DHT22;16509;53.862;10.672;2022-07-04T08:20:42;20.90;99.90
29577;DHT22;16509;53.862;10.672;2022-07-04T08:23:08;20.80;99.90
29577;DHT22;16509;53.862;10.672;2022-07-04T08:25:33;21.30;99.90
29577;DHT22;16509;53.862;10.672;2022-07-04T08:27:59;20.40;99.90
29577;DHT22;16509;53.862;10.672;2022-07-04T08:30:25;20.50;99.90
29577;DHT22;16509;53.862;10.672;2022-07-04T08:32:50;20.90;99.90
29577;DHT22;16509;53.862;10.672;2022-07-04T08:35:16;21.10;99.90
29577;DHT22;16509;53.862;10.672;2022-07-04T08:37:41;21.60;99.90
29577;DHT22;16509;53.862;10.672;2022-07-04T08:40:07;21.90;99.90
29577;DHT22;16509;53.862;10.672;2022-07-04T08:42:38;22.20;99.90
29577;DHT22;16509;53.862;10.672;2022-07-04T08:45:05;22.40;99.90
29577;DHT22;16509;53.862;10.672;2022-07-04T08:47:35;21.80;99.90
29577;DHT22;16509;53.862;10.672;2022-07-04T08:55:04;21.50;99.90
29577;DHT22;16509;53.862;10.672;2022-07-04T08:57:49;20.90;99.90
29577;DHT22;16509;53.862;10.672;2022-07-04T09:00:35;21.20;99.90
29577;DHT22;16509;53.862;10.672;2022-07-04T09:03:02;21.50;99.90
29577;DHT22;16509;53.862;10.672;2022-07-04T09:05:28;21.80;99.90
29577;DHT22;16509;53.862;10.672;2022-07-04T09:07:54;21.90;99.90
29577;DHT22;16509;53.862;10.672;2022-07-04T09:10:21;22.10;99.90
29577;DHT22;16509;53.862;10.672;2022-07-04T09:12:47;22.40;99.90
29577;DHT22;16509;53.862;10.672;2022-07-04T09:15:14;23.40;99.90
29577;DHT22;16509;53.862;10.672;2022-07-04T09:17:40;22.00;99.90
29577;DHT22;16509;53.862;10.672;2022-07-04T09:20:17;22.80;99.90
29577;DHT22;16509;53.862;10.672;2022-07-04T09:22:43;22.70;99.90
29577;DHT22;16509;53.862;10.672;2022-07-04T09:25:10;22.20;99.90
29577;DHT22;16509;53.862;10.672;2022-07-04T09:27:42;22.00;99.90
29577;DHT22;16509;53.862;10.672;2022-07-04T09:30:13;22.20;99.90
29577;DHT22;16509;53.862;10.672;2022-07-04T09:32:41;22.50;99.90
29577;DHT22;16509;53.862;10.672;2022-07-04T09:35:19;22.80;99.90
29577;DHT22;16509;53.862;10.672;2022-07-04T09:37:47;22.90;99.90
29577;DHT22;16509;53.862;10.672;2022-07-04T09:42:58;22.60;99.90
29577;DHT22;16509;53.862;10.672;2022-07-04T09:45:24;23.00;99.90
29577;DHT22;16509;53.862;10.672;2022-07-04T09:47:55;23.20;99.90
29577;DHT22;16509;53.862;10.672;2022-07-04T09:50:22;23.40;99.90
29577;DHT22;16509;53.862;10.672;2022-07-04T09:55:21;22.70;99.90
29577;DHT22;16509;53.862;10.672;2022-07-04T09:57:48;22.80;99.90
29577;DHT22;16509;53.862;10.672;2022-07-04T10:00:18;22.70;99.90
29577;DHT22;16509;53.862;10.672;2022-07-04T10:02:44;22.50;99.90
29577;DHT22;16509;53.862;10.672;2022-07-04T10:05:10;23.10;99.90
29577;DHT22;16509;53.862;10.672;2022-07-04T10:07:40;23.40;99.90
29577;DHT22;16509;53.862;10.672;2022-07-04T10:10:28;23.40;99.90
29577;DHT22;16509;53.862;10.672;2022-07-04T10:12:56;23.90;99.90
29577;DHT22;16509;53.862;10.672;2022-07-04T10:15:22;23.70;99.90
29577;DHT22;16509;53.862;10.672;2022-07-04T10:17:48;23.20;99.90
29577;DHT22;16509;53.862;10.672;2022-07-04T10:20:14;23.70;99.90
29577;DHT22;16509;53.862;10.672;2022-07-04T10:22:40;23.60;99.90
29577;DHT22;16509;53.862;10.672;2022-07-04T10:25:08;23.50;99.90
29577;DHT22;16509;53.862;10.672;2022-07-04T10:27:34;23.60;99.90
29577;DHT22;16509;53.862;10.672;2022-07-04T10:30:02;23.80;99.90
29577;DHT22;16509;53.862;10.672;2022-07-04T10:32:29;23.90;99.90
29577;DHT22;16509;53.862;10.672;2022-07-04T10:34:55;24.40;99.90
29577;DHT22;16509;53.862;10.672;2022-07-04T10:37:20;24.00;99.90
29577;DHT22;16509;53.862;10.672;2022-07-04T10:39:47;24.50;99.90
29577;DHT22;16509;53.862;10.672;2022-07-04T10:42:25;24.40;99.90
29577;DHT22;16509;53.862;10.672;2022-07-04T10:44:51;24.30;99.90
29577;DHT22;16509;53.862;10.672;2022-07-04T10:47:23;24.70;99.90
29577;DHT22;16509;53.862;10.672;2022-07-04T10:49:51;24.30;99.90
29577;DHT22;16509;53.862;10.672;2022-07-04T10:52:17;24.60;99.90
29577;DHT22;16509;53.862;10.672;2022-07-04T10:54:43;23.90;99.90
29577;DHT22;16509;53.862;10.672;2022-07-04T10:59:38;24.60;99.90
29577;DHT22;16509;53.862;10.672;2022-07-04T11:04:51;24.80;99.90
29577;DHT22;16509;53.862;10.672;2022-07-04T11:13:02;24.80;99.90
29577;DHT22;16509;53.862;10.672;2022-07-04T11:17:59;25.00;99.90
29577;DHT22;16509;53.862;10.672;2022-07-04T11:20:27;24.80;99.90
29577;DHT22;16509;53.862;10.672;2022-07-04T11:23:09;24.80;99.90
29577;DHT22;16509;53.862;10.672;2022-07-04T11:25:36;24.60;99.90
29577;DHT22;16509;53.862;10.672;2022-07-04T11:30:58;24.50;99.90
29577;DHT22;16509;53.862;10.672;2022-07-04T11:33:30;24.80;99.90
29577;DHT22;16509;53.862;10.672;2022-07-04T11:36:07;25.00;99.90
29577;DHT22;16509;53.862;10.672;2022-07-04T11:41:41;25.30;99.90
29577;DHT22;16509;53.862;10.672;2022-07-04T11:44:28;25.40;99.90
29577;DHT22;16509;53.862;10.672;2022-07-04T11:47:16;25.60;99.90
29577;DHT22;16509;53.862;10.672;2022-07-04T11:49:47;25.10;99.90
29577;DHT22;16509;53.862;10.672;2022-07-04T11:52:14;24.40;99.90
29577;DHT22;16509;53.862;10.672;2022-07-04T11:54:42;24.30;99.90
29577;DHT22;16509;53.862;10.672;2022-07-04T11:57:15;24.20;99.90
29577;DHT22;16509;53.862;10.672;2022-07-04T11:59:42;24.20;99.90
29577;DHT22;16509;53.862;10.672;2022-07-04T12:02:13;24.40;99.90
29577;DHT22;16509;53.862;10.672;2022-07-04T12:04:40;24.50;99.90
29577;DHT22;16509;53.862;10.672;2022-07-04T12:07:11;24.40;99.90
29577;DHT22;16509;53.862;10.672;2022-07-04T12:09:37;24.60;99.90
29577;DHT22;16509;53.862;10.672;2022-07-04T12:12:03;24.40;99.90
29577;DHT22;16509;53.862;10.672;2022-07-04T12:14:29;24.60;99.90
29577;DHT22;16509;53.862;10.672;2022-07-04T12:17:14;24.70;99.90
29577;DHT22;16509;53.862;10.672;2022-07-04T12:19:54;24.40;99.90
29577;DHT22;16509;53.862;10.672;2022-07-04T12:22:29;24.60;99.90
29577;DHT22;16509;53.862;10.672;2022-07-04T12:24:56;24.40;99.90
29577;DHT22;16509;53.862;10.672;2022-07-04T12:27:23;24.20;99.90
29577;DHT22;16509;53.862;10.672;2022-07-04T12:29:50;23.60;99.90
29577;DHT22;16509;53.862;10.672;2022-07-04T12:32:16;23.20;99.90
29577;DHT22;16509;53.862;10.672;2022-07-04T12:34:44;23.00;99.90
29577;DHT22;16509;53.862;10.672;2022-07-04T12:37:11;23.20;99.90
29577;DHT22;16509;53.862;10.672;2022-07-04T12:39:41;23.50;99.90
29577;DHT22;16509;53.862;10.672;2022-07-04T12:42:14;24.00;99.90
29577;DHT22;16509;53.862;10.672;2022-07-04T12:44:42;24.90;99.90
29577;DHT22;16509;53.862;10.672;2022-07-04T12:47:10;25.70;99.90
29577;DHT22;16509;53.862;10.672;2022-07-04T12:49:36;25.50;99.90
29577;DHT22;16509;53.862;10.672;2022-07-04T12:52:06;25.30;99.90
29577;DHT22;16509;53.862;10.672;2022-07-04T12:54:32;25.40;99.90
29577;DHT22;16509;53.862;10.672;2022-07-04T12:57:15;25.60;99.90
29577;DHT22;16509;53.862;10.672;2022-07-04T12:59:42;25.80;99.90
29577;DHT22;16509;53.862;10.672;2022-07-04T13:02:09;26.10;99.90
29577;DHT22;16509;53.862;10.672;2022-07-04T13:04:36;25.70;99.90
29577;DHT22;16509;53.862;10.672;2022-07-04T13:07:16;24.70;99.90
29577;DHT22;16509;53.862;10.672;2022-07-04T13:09:44;24.40;99.90
29577;DHT22;16509;53.862;10.672;2022-07-04T13:12:10;24.20;99.90
29577;DHT22;16509;53.862;10.672;2022-07-04T13:14:56;23.60;99.90
29577;DHT22;16509;53.862;10.672;2022-07-04T13:17:23;23.70;99.90
29577;DHT22;16509;53.862;10.672;2022-07-04T13:19:49;24.30;99.90
29577;DHT22;16509;53.862;10.672;2022-07-04T13:22:18;23.60;99.90
29577;DHT22;16509;53.862;10.672;2022-07-04T13:24:44;24.00;99.90
29577;DHT22;16509;53.862;10.672;2022-07-04T13:27:10;23.10;99.90
29577;DHT22;16509;53.862;10.672;2022-07-04T13:29:35;22.80;99.90
29577;DHT22;16509;53.862;10.672;2022-07-04T13:32:03;24.20;99.90
29577;DHT22;16509;53.862;10.672;2022-07-04T13:34:29;22.70;99.90
29577;DHT22;16509;53.862;10.672;2022-07-04T13:36:54;22.80;99.90
29577;DHT22;16509;53.862;10.672;2022-07-04T13:39:24;22.90;99.90
29577;DHT22;16509;53.862;10.672;2022-07-04T13:41:49;22.90;99.90
29577;DHT22;16509;53.862;10.672;2022-07-04T13:44:15;22.90;99.90
29577;DHT22;16509;53.862;10.672;2022-07-04T13:46:42;22.90;99.90
29577;DHT22;16509;53.862;10.672;2022-07-04T13:49:08;22.70;99.90
29577;DHT22;16509;53.862;10.672;2022-07-04T13:51:34;22.60;99.90
29577;DHT22;16509;53.862;10.672;2022-07-04T13:54:00;22.60;99.90
29577;DHT22;16509;53.862;10.672;2022-07-04T13:56:26;22.50;99.90
29577;DHT22;16509;53.862;10.672;2022-07-04T13:58:52;22.60;99.90
29577;DHT22;16509;53.862;10.672;2022-07-04T14:01:18;23.00;99.90
29577;DHT22;16509;53.862;10.672;2022-07-04T14:03:45;22.40;99.90
29577;DHT22;16509;53.862;10.672;2022-07-04T14:06:11;22.40;99.90
29577;DHT22;16509;53.862;10.672;2022-07-04T14:08:37;22.70;99.90
29577;DHT22;16509;53.862;10.672;2022-07-04T14:11:03;22.60;99.90
29577;DHT22;16509;53.862;10.672;2022-07-04T14:13:28;22.40;99.90
29577;DHT22;16509;53.862;10.672;2022-07-04T14:15:54;22.30;99.90
29577;DHT22;16509;53.862;10.672;2022-07-04T14:18:20;22.40;99.90
29577;DHT22;16509;53.862;10.672;2022-07-04T14:20:46;21.90;99.90
29577;DHT22;16509;53.862;10.672;2022-07-04T14:23:12;21.90;99.90
29577;DHT22;16509;53.862;10.672;2022-07-04T14:25:38;22.10;99.90
29577;DHT22;16509;53.862;10.672;2022-07-04T14:28:04;21.90;99.90
29577;DHT22;16509;53.862;10.672;2022-07-04T14:30:30;22.10;99.90
29577;DHT22;16509;53.862;10.672;2022-07-04T14:32:55;22.30;99.90
29577;DHT22;16509;53.862;10.672;2022-07-04T14:35:21;22.40;99.90
29577;DHT22;16509;53.862;10.672;2022-07-04T14:37:47;22.60;99.90
29577;DHT22;16509;53.862;10.672;2022-07-04T14:40:14;22.60;99.90
29577;DHT22;16509;53.862;10.672;2022-07-04T14:42:40;22.70;99.90
29577;DHT22;16509;53.862;10.672;2022-07-04T14:45:06;22.50;99.90
29577;DHT22;16509;53.862;10.672;2022-07-04T14:47:32;22.50;99.90
29577;DHT22;16509;53.862;10.672;2022-07-04T14:50:00;22.60;99.90
29577;DHT22;16509;53.862;10.672;2022-07-04T14:52:26;22.60;99.90
29577;DHT22;16509;53.862;10.672;2022-07-04T14:57:20;22.50;99.90
29577;DHT22;16509;53.862;10.672;2022-07-04T14:59:46;22.50;99.90
29577;DHT22;16509;53.862;10.672;2022-07-04T15:02:11;22.50;99.90
29577;DHT22;16509;53.862;10.672;2022-07-04T15:04:37;22.20;99.90
29577;DHT22;16509;53.862;10.672;2022-07-04T15:07:02;22.10;99.90
29577;DHT22;16509;53.862;10.672;2022-07-04T15:09:28;22.00;99.90
29577;DHT22;16509;53.862;10.672;2022-07-04T15:11:54;22.50;99.90
29577;DHT22;16509;53.862;10.672;2022-07-04T15:14:19;22.00;99.90
29577;DHT22;16509;53.862;10.672;2022-07-04T15:16:45;22.00;99.90
29577;DHT22;16509;53.862;10.672;2022-07-04T15:19:11;22.00;99.90
29577;DHT22;16509;53.862;10.672;2022-07-04T15:21:38;22.00;99.90
29577;DHT22;16509;53.862;10.672;2022-07-04T15:24:21;22.00;99.90
29577;DHT22;16509;53.862;10.672;2022-07-04T15:26:49;22.00;99.90
29577;DHT22;16509;53.862;10.672;2022-07-04T15:29:15;22.00;99.90
29577;DHT22;16509;53.862;10.672;2022-07-04T15:31:42;22.00;99.90
29577;DHT22;16509;53.862;10.672;2022-07-04T15:34:08;21.90;99.90
29577;DHT22;16509;53.862;10.672;2022-07-04T15:36:34;21.90;99.90
29577;DHT22;16509;53.862;10.672;2022-07-04T15:39:05;22.20;99.90
29577;DHT22;16509;53.862;10.672;2022-07-04T15:41:32;22.00;99.90
29577;DHT22;16509;53.862;10.672;2022-07-04T15:43:58;22.60;99.90
29577;DHT22;16509;53.862;10.672;2022-07-04T15:46:23;22.00;99.90